sensor_id;sensor_type;location;lat;lon;timestamp;P1;P4;P2;P0;N10;N4;N25;N1;N05;TS
79466;SPS30;68933;49.726;9.226;2023-06-14T00:01:11;9.3;;9.3;8.9;;;;;;
79466;SPS30;68933;49.726;9.226;2023-06-14T00:03:24;9.8;;9.8;9.3;;;;;;
79466;SPS30;68933;49.726;9.226;2023-06-14T00:05:37;9.8;;9.8;9.3;;;;;;
79466;SPS30;68933;49.726;9.226;2023-06-14T00:07:50;9.1;;9.1;8.6;;;;;;
79466;SPS30;68933;49.726;9.226;2023-06-14T00:10:03;9.1;;9.1;8.6;;;;;;
79466;SPS30;68933;49.726;9.226;2023-06-14T00:12:16;10.2;;10.2;9.8;;;;;;
79466;SPS30;68933;49.726;9.226;2023-06-14T00:14:29;10.2;;10.2;9.8;;;;;;
79466;SPS30;68933;49.726;9.226;2023-06-14T00:16:42;10.2;;10.2;9.8;;;;;;
79466;SPS30;68933;49.726;9.226;2023-06-14T00:18:55;10.2;;10.2;9.8;;;;;;
79466;SPS30;68933;49.726;9.226;2023-06-14T00:21:08;10.2;;10.2;9.8;;;;;;
79466;SPS30;68933;49.726;9.226;2023-06-14T00:23:21;9.8;;9.8;9.3;;;;;;
79466;SPS30;68933;49.726;9.226;2023-06-14T00:25:34;9.8;;9.8;9.3;;;;;;
79466;SPS30;68933;49.726;9.226;2023-06-14T00:27:47;9.3;;9.3;8.9;;;;;;
79466;SPS30;68933;49.726;9.226;2023-06-14T00:30:00;9.3;;9.3;8.9;;;;;;
79466;SPS30;68933;49.726;9.226;2023-06-14T00:32:13;9.3;;9.3;8.9;;;;;;
79466;SPS30;68933;49.726;9.226;2023-06-14T00:34:26;9.6;;9.6;9.2;;;;;;
79466;SPS30;68933;49.726;9.226;2023-06-14T00:36:39;9.6;;9.6;9.2;;;;;;
79466;SPS30;68933;49.726;9.226;2023-06-14T00:38:52;8.8;;8.8;8.4;;;;;;
79466;SPS30;68933;49.726;9.226;2023-06-14T00:41:05;8.8;;8.8;8.4;;;;;;
79466;SPS30;68933;49.726;9.226;2023-06-14T00:43:18;8.5;;8.5;8.1;;;;;;
79466;SPS30;68933;49.726;9.226;2023-06-14T00:45:31;8.5;;8.5;8.1;;;;;;
79466;SPS30;68933;49.726;9.226;2023-06-14T00:47:44;8.5;;8.5;8.1;;;;;;
79466;SPS30;68933;49.726;9.226;2023-06-14T00:49:57;8.6;;8.6;8.2;;;;;;
79466;SPS30;68933;49.726;9.226;2023-06-14T00:52:10;8.6;;8.6;8.2;;;;;;
79466;SPS30;68933;49.726;9.226;2023-06-14T00:54:23;9.4;;9.4;9;;;;;;
79466;SPS30;68933;49.726;9.226;2023-06-14T00:56:36;9.4;;9.4;9;;;;;;
79466;SPS30;68933;49.726;9.226;2023-06-14T00:58:49;9.4;;9.4;9;;;;;;
79466;SPS30;68933;49.726;9.226;2023-06-14T01:01:02;9.4;;9.4;9;;;;;;
79466;SPS30;68933;49.726;9.226;2023-06-14T01:03:15;9.4;;9.4;9;;;;;;
79466;SPS30;68933;49.726;9.226;2023-06-14T01:05:28;9.3;;9.3;8.9;;;;;;
79466;SPS30;68933;49.726;9.226;2023-06-14T01:07:43;9.3;;9.3;8.9;;;;;;
79466;SPS30;68933;49.726;9.226;2023-06-14T01:09:58;10.1;;10.1;9.7;;;;;;
79466;SPS30;68933;49.726;9.226;2023-06-14T01:12:07;10.1;;10.1;9.7;;;;;;
79466;SPS30;68933;49.726;9.226;2023-06-14T01:14:20;10.1;;10.1;9.7;;;;;;
79466;SPS30;68933;49.726;9.226;2023-06-14T01:16:33;10.1;;10.1;9.7;;;;;;
79466;SPS30;68933;49.726;9.226;2023-06-14T01:18:46;10.1;;10.1;9.7;;;;;;
79466;SPS30;68933;49.726;9.226;2023-06-14T01:20:59;11.1;;11.1;10.6;;;;;;
79466;SPS30;68933;49.726;9.226;2023-06-14T01:23:12;11.1;;11.1;10.6;;;;;;
79466;SPS30;68933;49.726;9.226;2023-06-14T01:25:25;10.7;;10.7;10.2;;;;;;
79466;SPS30;68933;49.726;9.226;2023-06-14T01:27:38;10.7;;10.7;10.2;;;;;;
79466;SPS30;68933;49.726;9.226;2023-06-14T01:29:51;10.6;;10.6;10.1;;;;;;
79466;SPS30;68933;49.726;9.226;2023-06-14T01:32:04;10.6;;10.6;10.1;;;;;;
79466;SPS30;68933;49.726;9.226;2023-06-14T01:34:17;12.6;;12.6;12.1;;;;;;
79466;SPS30;68933;49.726;9.226;2023-06-14T01:36:30;12.6;;12.6;12.1;;;;;;
79466;SPS30;68933;49.726;9.226;2023-06-14T01:38:43;12.7;;12.7;12.2;;;;;;
79466;SPS30;68933;49.726;9.226;2023-06-14T01:40:56;12.7;;12.7;12.2;;;;;;
79466;SPS30;68933;49.726;9.226;2023-06-14T01:43:09;12.7;;12.7;12.2;;;;;;
79466;SPS30;68933;49.726;9.226;2023-06-14T01:45:22;12.3;;12.3;11.7;;;;;;
79466;SPS30;68933;49.726;9.226;2023-06-14T01:47:35;12.3;;12.3;11.7;;;;;;
79466;SPS30;68933;49.726;9.226;2023-06-14T01:49:48;11.8;;11.8;11.3;;;;;;
79466;SPS30;68933;49.726;9.226;2023-06-14T01:52:01;11.8;;11.8;11.3;;;;;;
79466;SPS30;68933;49.726;9.226;2023-06-14T01:54:14;11.3;;11.3;10.7;;;;;;
79466;SPS30;68933;49.726;9.226;2023-06-14T01:56:27;11.3;;11.3;10.7;;;;;;
79466;SPS30;68933;49.726;9.226;2023-06-14T01:58:40;12.2;;12.2;11.7;;;;;;
79466;SPS30;68933;49.726;9.226;2023-06-14T02:00:53;12.2;;12.2;11.7;;;;;;
79466;SPS30;68933;49.726;9.226;2023-06-14T02:03:06;12.2;;12.2;11.7;;;;;;
79466;SPS30;68933;49.726;9.226;2023-06-14T02:05:19;10.8;;10.8;10.3;;;;;;
79466;SPS30;68933;49.726;9.226;2023-06-14T02:07:32;10.8;;10.8;10.3;;;;;;
79466;SPS30;68933;49.726;9.226;2023-06-14T02:09:45;16.4;;16.4;15.6;;;;;;
79466;SPS30;68933;49.726;9.226;2023-06-14T02:11:58;16.4;;16.4;15.6;;;;;;
79466;SPS30;68933;49.726;9.226;2023-06-14T02:14:11;14.8;;14.8;14.2;;;;;;
79466;SPS30;68933;49.726;9.226;2023-06-14T02:16:24;14.8;;14.8;14.2;;;;;;
79466;SPS30;68933;49.726;9.226;2023-06-14T02:18:37;16.9;;16.9;16.1;;;;;;
79466;SPS30;68933;49.726;9.226;2023-06-14T02:20:50;16.9;;16.9;16.1;;;;;;
79466;SPS30;68933;49.726;9.226;2023-06-14T02:23:03;16.9;;16.9;16.1;;;;;;
79466;SPS30;68933;49.726;9.226;2023-06-14T02:25:16;15.6;;15.6;14.9;;;;;;
79466;SPS30;68933;49.726;9.226;2023-06-14T02:27:29;15.6;;15.6;14.9;;;;;;
79466;SPS30;68933;49.726;9.226;2023-06-14T02:29:42;15.8;;15.8;15.1;;;;;;
79466;SPS30;68933;49.726;9.226;2023-06-14T02:31:55;15.8;;15.8;15.1;;;;;;
79466;SPS30;68933;49.726;9.226;2023-06-14T02:34:08;15.6;;15.6;14.9;;;;;;
79466;SPS30;68933;49.726;9.226;2023-06-14T02:36:21;15.6;;15.6;14.9;;;;;;
79466;SPS30;68933;49.726;9.226;2023-06-14T02:38:34;15.9;;15.9;15.2;;;;;;
79466;SPS30;68933;49.726;9.226;2023-06-14T02:40:47;15.9;;15.9;15.2;;;;;;
79466;SPS30;68933;49.726;9.226;2023-06-14T02:43:00;14;;14;13.4;;;;;;
79466;SPS30;68933;49.726;9.226;2023-06-14T02:45:13;14;;14;13.4;;;;;;
79466;SPS30;68933;49.726;9.226;2023-06-14T02:47:26;16.4;;16.4;15.6;;;;;;
79466;SPS30;68933;49.726;9.226;2023-06-14T02:49:39;16.4;;16.4;15.6;;;;;;
79466;SPS30;68933;49.726;9.226;2023-06-14T02:51:52;16.4;;16.4;15.6;;;;;;
79466;SPS30;68933;49.726;9.226;2023-06-14T02:54:05;14.3;;14.3;13.6;;;;;;
79466;SPS30;68933;49.726;9.226;2023-06-14T02:56:18;14.3;;14.3;13.6;;;;;;
79466;SPS30;68933;49.726;9.226;2023-06-14T02:58:31;13.2;;13.2;12.6;;;;;;
79466;SPS30;68933;49.726;9.226;2023-06-14T03:00:44;13.2;;13.2;12.6;;;;;;
79466;SPS30;68933;49.726;9.226;2023-06-14T03:02:57;13.2;;13.2;12.6;;;;;;
79466;SPS30;68933;49.726;9.226;2023-06-14T03:05:10;13.1;;13.1;12.5;;;;;;
79466;SPS30;68933;49.726;9.226;2023-06-14T03:07:23;13.1;;13.1;12.5;;;;;;
79466;SPS30;68933;49.726;9.226;2023-06-14T03:09:36;12.4;;12.4;11.9;;;;;;
79466;SPS30;68933;49.726;9.226;2023-06-14T03:11:49;12.4;;12.4;11.9;;;;;;
79466;SPS30;68933;49.726;9.226;2023-06-14T03:14:02;12.4;;12.4;11.9;;;;;;
79466;SPS30;68933;49.726;9.226;2023-06-14T03:16:15;13.3;;13.3;12.6;;;;;;
79466;SPS30;68933;49.726;9.226;2023-06-14T03:18:28;13.3;;13.3;12.6;;;;;;
79466;SPS30;68933;49.726;9.226;2023-06-14T03:20:41;13.3;;13.3;12.7;;;;;;
79466;SPS30;68933;49.726;9.226;2023-06-14T03:22:54;13.3;;13.3;12.7;;;;;;
79466;SPS30;68933;49.726;9.226;2023-06-14T03:25:07;14.1;;14.1;13.4;;;;;;
79466;SPS30;68933;49.726;9.226;2023-06-14T03:27:20;14.1;;14.1;13.4;;;;;;
79466;SPS30;68933;49.726;9.226;2023-06-14T03:29:33;14.1;;14.1;13.4;;;;;;
79466;SPS30;68933;49.726;9.226;2023-06-14T03:31:56;13.9;;13.9;13.3;;;;;;
79466;SPS30;68933;49.726;9.226;2023-06-14T03:33:59;13.9;;13.9;13.3;;;;;;
79466;SPS30;68933;49.726;9.226;2023-06-14T03:36:12;12.9;;12.9;12.3;;;;;;
79466;SPS30;68933;49.726;9.226;2023-06-14T03:38:25;12.9;;12.9;12.3;;;;;;
79466;SPS30;68933;49.726;9.226;2023-06-14T03:40:38;12.9;;12.9;12.3;;;;;;
79466;SPS30;68933;49.726;9.226;2023-06-14T03:42:51;12.5;;12.5;11.9;;;;;;
79466;SPS30;68933;49.726;9.226;2023-06-14T03:45:04;12.5;;12.5;11.9;;;;;;
79466;SPS30;68933;49.726;9.226;2023-06-14T03:47:17;13.7;;13.7;13.1;;;;;;
79466;SPS30;68933;49.726;9.226;2023-06-14T03:49:30;13.7;;13.7;13.1;;;;;;
79466;SPS30;68933;49.726;9.226;2023-06-14T03:51:43;14;;14;13.3;;;;;;
79466;SPS30;68933;49.726;9.226;2023-06-14T03:53:56;14;;14;13.3;;;;;;
79466;SPS30;68933;49.726;9.226;2023-06-14T03:56:09;14;;14;13.3;;;;;;
79466;SPS30;68933;49.726;9.226;2023-06-14T03:58:22;13.7;;13.7;13;;;;;;
79466;SPS30;68933;49.726;9.226;2023-06-14T04:00:35;13.7;;13.7;13;;;;;;
79466;SPS30;68933;49.726;9.226;2023-06-14T04:02:48;14.2;;14.2;13.5;;;;;;
79466;SPS30;68933;49.726;9.226;2023-06-14T04:05:01;14.2;;14.2;13.5;;;;;;
79466;SPS30;68933;49.726;9.226;2023-06-14T04:07:14;15.1;;15.1;14.4;;;;;;
79466;SPS30;68933;49.726;9.226;2023-06-14T04:09:27;15.1;;15.1;14.4;;;;;;
79466;SPS30;68933;49.726;9.226;2023-06-14T04:11:40;15.1;;15.1;14.4;;;;;;
79466;SPS30;68933;49.726;9.226;2023-06-14T04:13:53;14.6;;14.6;13.9;;;;;;
79466;SPS30;68933;49.726;9.226;2023-06-14T04:16:06;14.6;;14.6;13.9;;;;;;
79466;SPS30;68933;49.726;9.226;2023-06-14T04:18:19;14.7;;14.7;14.1;;;;;;
79466;SPS30;68933;49.726;9.226;2023-06-14T04:20:32;14.7;;14.7;14.1;;;;;;
79466;SPS30;68933;49.726;9.226;2023-06-14T04:22:45;14.1;;14.1;13.4;;;;;;
79466;SPS30;68933;49.726;9.226;2023-06-14T04:24:58;14.1;;14.1;13.4;;;;;;
79466;SPS30;68933;49.726;9.226;2023-06-14T04:27:11;14.5;;14.5;13.8;;;;;;
79466;SPS30;68933;49.726;9.226;2023-06-14T04:29:24;14.5;;14.5;13.8;;;;;;
79466;SPS30;68933;49.726;9.226;2023-06-14T04:31:37;14.5;;14.5;13.8;;;;;;
79466;SPS30;68933;49.726;9.226;2023-06-14T04:33:50;14.5;;14.5;13.8;;;;;;
79466;SPS30;68933;49.726;9.226;2023-06-14T04:36:03;14.5;;14.5;13.8;;;;;;
79466;SPS30;68933;49.726;9.226;2023-06-14T04:38:16;14.5;;14.5;13.8;;;;;;
79466;SPS30;68933;49.726;9.226;2023-06-14T04:40:29;14.5;;14.5;13.8;;;;;;
79466;SPS30;68933;49.726;9.226;2023-06-14T04:42:42;14.5;;14.5;13.8;;;;;;
79466;SPS30;68933;49.726;9.226;2023-06-14T04:44:55;14.5;;14.5;13.8;;;;;;
79466;SPS30;68933;49.726;9.226;2023-06-14T04:47:08;14.5;;14.5;13.8;;;;;;
79466;SPS30;68933;49.726;9.226;2023-06-14T04:49:21;15.5;;15.5;14.8;;;;;;
79466;SPS30;68933;49.726;9.226;2023-06-14T04:51:34;15.5;;15.5;14.8;;;;;;
79466;SPS30;68933;49.726;9.226;2023-06-14T04:53:47;14.8;;14.8;14.1;;;;;;
79466;SPS30;68933;49.726;9.226;2023-06-14T04:56:00;14.8;;14.8;14.1;;;;;;
79466;SPS30;68933;49.726;9.226;2023-06-14T04:58:13;15.6;;15.6;14.8;;;;;;
79466;SPS30;68933;49.726;9.226;2023-06-14T05:00:26;15.6;;15.6;14.8;;;;;;
79466;SPS30;68933;49.726;9.226;2023-06-14T05:02:39;17.1;;17.1;16.3;;;;;;
79466;SPS30;68933;49.726;9.226;2023-06-14T05:04:52;17.1;;17.1;16.3;;;;;;
79466;SPS30;68933;49.726;9.226;2023-06-14T05:07:06;16.7;;16.7;15.9;;;;;;
79466;SPS30;68933;49.726;9.226;2023-06-14T05:09:18;16.7;;16.7;15.9;;;;;;
79466;SPS30;68933;49.726;9.226;2023-06-14T05:11:31;16.7;;16.7;15.9;;;;;;
79466;SPS30;68933;49.726;9.226;2023-06-14T05:13:44;17.7;;17.7;16.9;;;;;;
79466;SPS30;68933;49.726;9.226;2023-06-14T05:15:57;17.7;;17.7;16.9;;;;;;
79466;SPS30;68933;49.726;9.226;2023-06-14T05:18:10;17.7;;17.7;16.8;;;;;;
79466;SPS30;68933;49.726;9.226;2023-06-14T05:20:23;17.7;;17.7;16.8;;;;;;
79466;SPS30;68933;49.726;9.226;2023-06-14T05:22:36;16.4;;16.4;15.6;;;;;;
79466;SPS30;68933;49.726;9.226;2023-06-14T05:24:49;16.4;;16.4;15.6;;;;;;
79466;SPS30;68933;49.726;9.226;2023-06-14T05:27:02;16.4;;16.4;15.7;;;;;;
79466;SPS30;68933;49.726;9.226;2023-06-14T05:29:15;16.4;;16.4;15.7;;;;;;
79466;SPS30;68933;49.726;9.226;2023-06-14T05:31:28;15.1;;15.1;14.4;;;;;;
79466;SPS30;68933;49.726;9.226;2023-06-14T05:33:41;15.1;;15.1;14.4;;;;;;
79466;SPS30;68933;49.726;9.226;2023-06-14T05:35:54;15;;15;14.3;;;;;;
79466;SPS30;68933;49.726;9.226;2023-06-14T05:38:07;15;;15;14.3;;;;;;
79466;SPS30;68933;49.726;9.226;2023-06-14T05:40:20;15;;15;14.3;;;;;;
79466;SPS30;68933;49.726;9.226;2023-06-14T05:42:33;13.7;;13.7;13.1;;;;;;
79466;SPS30;68933;49.726;9.226;2023-06-14T05:44:46;13.7;;13.7;13.1;;;;;;
79466;SPS30;68933;49.726;9.226;2023-06-14T05:46:59;13.5;;13.5;12.9;;;;;;
79466;SPS30;68933;49.726;9.226;2023-06-14T05:49:12;13.5;;13.5;12.9;;;;;;
79466;SPS30;68933;49.726;9.226;2023-06-14T05:51:25;13.5;;13.5;12.9;;;;;;
79466;SPS30;68933;49.726;9.226;2023-06-14T05:53:38;13.2;;13.2;12.6;;;;;;
79466;SPS30;68933;49.726;9.226;2023-06-14T05:55:51;13.2;;13.2;12.6;;;;;;
79466;SPS30;68933;49.726;9.226;2023-06-14T05:58:04;13;;13;12.4;;;;;;
79466;SPS30;68933;49.726;9.226;2023-06-14T06:00:17;13;;13;12.4;;;;;;
79466;SPS30;68933;49.726;9.226;2023-06-14T06:02:30;13;;13;12.4;;;;;;
79466;SPS30;68933;49.726;9.226;2023-06-14T06:04:43;11.2;;11.2;10.7;;;;;;
79466;SPS30;68933;49.726;9.226;2023-06-14T06:06:56;11.2;;11.2;10.7;;;;;;
79466;SPS30;68933;49.726;9.226;2023-06-14T06:09:09;11.8;;11.8;11.2;;;;;;
79466;SPS30;68933;49.726;9.226;2023-06-14T06:11:22;11.8;;11.8;11.2;;;;;;
79466;SPS30;68933;49.726;9.226;2023-06-14T06:13:35;11.1;;11.1;10.6;;;;;;
79466;SPS30;68933;49.726;9.226;2023-06-14T06:15:48;11.1;;11.1;10.6;;;;;;
79466;SPS30;68933;49.726;9.226;2023-06-14T06:18:01;11.1;;11.1;10.6;;;;;;
79466;SPS30;68933;49.726;9.226;2023-06-14T06:20:14;9.1;;9.1;8.7;;;;;;
79466;SPS30;68933;49.726;9.226;2023-06-14T06:22:27;9.1;;9.1;8.7;;;;;;
79466;SPS30;68933;49.726;9.226;2023-06-14T06:24:40;9.8;;9.8;9.3;;;;;;
79466;SPS30;68933;49.726;9.226;2023-06-14T06:26:53;9.8;;9.8;9.3;;;;;;
79466;SPS30;68933;49.726;9.226;2023-06-14T06:29:06;9.8;;9.8;9.3;;;;;;
79466;SPS30;68933;49.726;9.226;2023-06-14T06:31:19;8.1;;8.1;7.8;;;;;;
79466;SPS30;68933;49.726;9.226;2023-06-14T06:33:32;8.1;;8.1;7.8;;;;;;
79466;SPS30;68933;49.726;9.226;2023-06-14T06:35:45;7.7;;7.7;7.3;;;;;;
79466;SPS30;68933;49.726;9.226;2023-06-14T06:37:58;7.7;;7.7;7.3;;;;;;
79466;SPS30;68933;49.726;9.226;2023-06-14T06:40:11;7.4;;7.4;7.1;;;;;;
79466;SPS30;68933;49.726;9.226;2023-06-14T06:42:24;7.4;;7.4;7.1;;;;;;
79466;SPS30;68933;49.726;9.226;2023-06-14T06:44:37;7.4;;7.4;7.1;;;;;;
79466;SPS30;68933;49.726;9.226;2023-06-14T06:46:50;6.9;;6.9;6.5;;;;;;
79466;SPS30;68933;49.726;9.226;2023-06-14T06:49:03;6.9;;6.9;6.5;;;;;;
79466;SPS30;68933;49.726;9.226;2023-06-14T06:51:16;7.2;;7.2;6.9;;;;;;
79466;SPS30;68933;49.726;9.226;2023-06-14T06:53:29;7.2;;7.2;6.9;;;;;;
79466;SPS30;68933;49.726;9.226;2023-06-14T06:55:42;7;;7;6.6;;;;;;
79466;SPS30;68933;49.726;9.226;2023-06-14T06:57:55;7;;7;6.6;;;;;;
79466;SPS30;68933;49.726;9.226;2023-06-14T07:00:08;7;;7;6.6;;;;;;
79466;SPS30;68933;49.726;9.226;2023-06-14T07:02:21;7.9;;7.9;7.5;;;;;;
79466;SPS30;68933;49.726;9.226;2023-06-14T07:04:34;7.9;;7.9;7.5;;;;;;
79466;SPS30;68933;49.726;9.226;2023-06-14T07:06:47;8;;8;7.6;;;;;;
79466;SPS30;68933;49.726;9.226;2023-06-14T07:09:00;8;;8;7.6;;;;;;
79466;SPS30;68933;49.726;9.226;2023-06-14T07:11:13;8.2;;8.2;7.8;;;;;;
79466;SPS30;68933;49.726;9.226;2023-06-14T07:13:26;8.2;;8.2;7.8;;;;;;
79466;SPS30;68933;49.726;9.226;2023-06-14T07:15:39;8.2;;8.2;7.8;;;;;;
79466;SPS30;68933;49.726;9.226;2023-06-14T07:17:52;8;;8;7.7;;;;;;
79466;SPS30;68933;49.726;9.226;2023-06-14T07:20:05;8;;8;7.7;;;;;;
79466;SPS30;68933;49.726;9.226;2023-06-14T07:22:18;7.3;;7.3;7;;;;;;
79466;SPS30;68933;49.726;9.226;2023-06-14T07:24:31;7.3;;7.3;7;;;;;;
79466;SPS30;68933;49.726;9.226;2023-06-14T07:26:44;7.7;;7.7;7.3;;;;;;
79466;SPS30;68933;49.726;9.226;2023-06-14T07:28:57;7.7;;7.7;7.3;;;;;;
79466;SPS30;68933;49.726;9.226;2023-06-14T07:31:10;7.4;;7.4;7.1;;;;;;
79466;SPS30;68933;49.726;9.226;2023-06-14T07:33:23;7.4;;7.4;7.1;;;;;;
79466;SPS30;68933;49.726;9.226;2023-06-14T07:35:36;7.4;;7.4;7.1;;;;;;
79466;SPS30;68933;49.726;9.226;2023-06-14T07:37:49;7.5;;7.5;7.1;;;;;;
79466;SPS30;68933;49.726;9.226;2023-06-14T07:40:02;7.5;;7.5;7.1;;;;;;
79466;SPS30;68933;49.726;9.226;2023-06-14T07:42:15;7.1;;7.1;6.8;;;;;;
79466;SPS30;68933;49.726;9.226;2023-06-14T07:44:29;7.1;;7.1;6.8;;;;;;
79466;SPS30;68933;49.726;9.226;2023-06-14T07:46:41;7.6;;7.6;7.2;;;;;;
79466;SPS30;68933;49.726;9.226;2023-06-14T07:48:54;7.6;;7.6;7.2;;;;;;
79466;SPS30;68933;49.726;9.226;2023-06-14T07:51:07;7.6;;7.6;7.2;;;;;;
79466;SPS30;68933;49.726;9.226;2023-06-14T07:53:20;7.4;;7.4;7;;;;;;
79466;SPS30;68933;49.726;9.226;2023-06-14T07:55:33;7.4;;7.4;7;;;;;;
79466;SPS30;68933;49.726;9.226;2023-06-14T07:57:46;7.4;;7.4;7;;;;;;
79466;SPS30;68933;49.726;9.226;2023-06-14T07:59:59;7.4;;7.4;7;;;;;;
79466;SPS30;68933;49.726;9.226;2023-06-14T08:02:12;7.4;;7.4;7;;;;;;
79466;SPS30;68933;49.726;9.226;2023-06-14T08:04:25;7.4;;7.4;7;;;;;;
79466;SPS30;68933;49.726;9.226;2023-06-14T08:06:38;7;;7;6.7;;;;;;
79466;SPS30;68933;49.726;9.226;2023-06-14T08:08:51;7;;7;6.7;;;;;;
79466;SPS30;68933;49.726;9.226;2023-06-14T08:11:04;7;;7;6.7;;;;;;
79466;SPS30;68933;49.726;9.226;2023-06-14T08:13:17;7.3;;7.3;6.9;;;;;;
79466;SPS30;68933;49.726;9.226;2023-06-14T08:15:30;7.3;;7.3;6.9;;;;;;
79466;SPS30;68933;49.726;9.226;2023-06-14T08:17:43;7.6;;7.6;7.2;;;;;;
79466;SPS30;68933;49.726;9.226;2023-06-14T08:19:56;7.6;;7.6;7.2;;;;;;
79466;SPS30;68933;49.726;9.226;2023-06-14T08:22:09;7.4;;7.4;7.1;;;;;;
79466;SPS30;68933;49.726;9.226;2023-06-14T08:24:22;7.4;;7.4;7.1;;;;;;
79466;SPS30;68933;49.726;9.226;2023-06-14T08:26:35;7.6;;7.6;7.2;;;;;;
79466;SPS30;68933;49.726;9.226;2023-06-14T08:28:48;7.6;;7.6;7.2;;;;;;
79466;SPS30;68933;49.726;9.226;2023-06-14T08:31:01;7.7;;7.7;7.3;;;;;;
79466;SPS30;68933;49.726;9.226;2023-06-14T08:33:14;7.7;;7.7;7.3;;;;;;
79466;SPS30;68933;49.726;9.226;2023-06-14T08:35:27;7.7;;7.7;7.3;;;;;;
79466;SPS30;68933;49.726;9.226;2023-06-14T08:37:40;7;;7;6.7;;;;;;
79466;SPS30;68933;49.726;9.226;2023-06-14T08:39:53;7;;7;6.7;;;;;;
79466;SPS30;68933;49.726;9.226;2023-06-14T08:42:06;6.8;;6.8;6.4;;;;;;
79466;SPS30;68933;49.726;9.226;2023-06-14T08:44:19;6.8;;6.8;6.4;;;;;;
79466;SPS30;68933;49.726;9.226;2023-06-14T08:46:32;7.1;;7.1;6.7;;;;;;
79466;SPS30;68933;49.726;9.226;2023-06-14T08:48:45;7.1;;7.1;6.7;;;;;;
79466;SPS30;68933;49.726;9.226;2023-06-14T08:50:58;6.8;;6.8;6.5;;;;;;
79466;SPS30;68933;49.726;9.226;2023-06-14T08:53:11;6.8;;6.8;6.5;;;;;;
79466;SPS30;68933;49.726;9.226;2023-06-14T08:55:24;6.8;;6.8;6.5;;;;;;
79466;SPS30;68933;49.726;9.226;2023-06-14T08:57:37;6.4;;6.4;6.1;;;;;;
79466;SPS30;68933;49.726;9.226;2023-06-14T08:59:50;6.4;;6.4;6.1;;;;;;
79466;SPS30;68933;49.726;9.226;2023-06-14T09:02:03;7.5;;7.5;7.2;;;;;;
79466;SPS30;68933;49.726;9.226;2023-06-14T09:04:16;7.5;;7.5;7.2;;;;;;
79466;SPS30;68933;49.726;9.226;2023-06-14T09:06:29;7.5;;7.5;7.1;;;;;;
79466;SPS30;68933;49.726;9.226;2023-06-14T09:08:42;7.5;;7.5;7.1;;;;;;
79466;SPS30;68933;49.726;9.226;2023-06-14T09:10:55;7.5;;7.5;7.1;;;;;;
79466;SPS30;68933;49.726;9.226;2023-06-14T09:13:08;6.5;;6.5;6.2;;;;;;
79466;SPS30;68933;49.726;9.226;2023-06-14T09:15:21;6.5;;6.5;6.2;;;;;;
79466;SPS30;68933;49.726;9.226;2023-06-14T09:17:34;6.5;;6.5;6.2;;;;;;
79466;SPS30;68933;49.726;9.226;2023-06-14T09:19:47;6.9;;6.9;6.6;;;;;;
79466;SPS30;68933;49.726;9.226;2023-06-14T09:22:00;6.9;;6.9;6.6;;;;;;
79466;SPS30;68933;49.726;9.226;2023-06-14T09:24:13;6.8;;6.8;6.5;;;;;;
79466;SPS30;68933;49.726;9.226;2023-06-14T09:26:26;6.8;;6.8;6.5;;;;;;
79466;SPS30;68933;49.726;9.226;2023-06-14T09:28:41;7.9;;7.9;7.5;;;;;;
79466;SPS30;68933;49.726;9.226;2023-06-14T09:30:52;7.9;;7.9;7.5;;;;;;
79466;SPS30;68933;49.726;9.226;2023-06-14T09:33:05;7.9;;7.9;7.5;;;;;;
79466;SPS30;68933;49.726;9.226;2023-06-14T09:35:18;7.4;;7.4;7;;;;;;
79466;SPS30;68933;49.726;9.226;2023-06-14T09:37:31;7.4;;7.4;7;;;;;;
79466;SPS30;68933;49.726;9.226;2023-06-14T09:39:51;6.6;;6.6;6.3;;;;;;
79466;SPS30;68933;49.726;9.226;2023-06-14T09:41:57;6.6;;6.6;6.3;;;;;;
79466;SPS30;68933;49.726;9.226;2023-06-14T09:44:10;6.6;;6.6;6.3;;;;;;
79466;SPS30;68933;49.726;9.226;2023-06-14T09:46:23;6.5;;6.5;6.2;;;;;;
79466;SPS30;68933;49.726;9.226;2023-06-14T09:48:36;6.5;;6.5;6.2;;;;;;
79466;SPS30;68933;49.726;9.226;2023-06-14T09:50:49;6.6;;6.6;6.3;;;;;;
79466;SPS30;68933;49.726;9.226;2023-06-14T09:53:02;6.6;;6.6;6.3;;;;;;
79466;SPS30;68933;49.726;9.226;2023-06-14T09:55:15;6.6;;6.6;6.3;;;;;;
79466;SPS30;68933;49.726;9.226;2023-06-14T09:57:28;6.6;;6.6;6.3;;;;;;
79466;SPS30;68933;49.726;9.226;2023-06-14T09:59:41;6.6;;6.6;6.3;;;;;;
79466;SPS30;68933;49.726;9.226;2023-06-14T10:01:54;6;;6;5.7;;;;;;
79466;SPS30;68933;49.726;9.226;2023-06-14T10:04:07;6;;6;5.7;;;;;;
79466;SPS30;68933;49.726;9.226;2023-06-14T10:06:20;6.1;;6.1;5.9;;;;;;
79466;SPS30;68933;49.726;9.226;2023-06-14T10:08:33;6.1;;6.1;5.9;;;;;;
79466;SPS30;68933;49.726;9.226;2023-06-14T10:10:46;6.1;;6.1;5.9;;;;;;
79466;SPS30;68933;49.726;9.226;2023-06-14T10:12:59;5.5;;5.5;5.2;;;;;;
79466;SPS30;68933;49.726;9.226;2023-06-14T10:15:13;5.5;;5.5;5.2;;;;;;
79466;SPS30;68933;49.726;9.226;2023-06-14T10:17:26;6;;6;5.7;;;;;;
79466;SPS30;68933;49.726;9.226;2023-06-14T10:19:40;6;;6;5.7;;;;;;
79466;SPS30;68933;49.726;9.226;2023-06-14T10:21:51;6.1;;6.1;5.8;;;;;;
79466;SPS30;68933;49.726;9.226;2023-06-14T10:24:05;6.1;;6.1;5.8;;;;;;
79466;SPS30;68933;49.726;9.226;2023-06-14T10:26:18;6.1;;6.1;5.8;;;;;;
79466;SPS30;68933;49.726;9.226;2023-06-14T10:28:30;6.5;;6.5;6.2;;;;;;
79466;SPS30;68933;49.726;9.226;2023-06-14T10:31:01;6.5;;6.5;6.2;;;;;;
79466;SPS30;68933;49.726;9.226;2023-06-14T10:33:03;5.2;;5.2;5;;;;;;
79466;SPS30;68933;49.726;9.226;2023-06-14T10:35:09;5.2;;5.2;5;;;;;;
79466;SPS30;68933;49.726;9.226;2023-06-14T10:37:22;6.4;;6.4;6.1;;;;;;
79466;SPS30;68933;49.726;9.226;2023-06-14T10:39:37;6.4;;6.4;6.1;;;;;;
79466;SPS30;68933;49.726;9.226;2023-06-14T10:41:52;5.7;;5.7;5.5;;;;;;
79466;SPS30;68933;49.726;9.226;2023-06-14T10:44:33;5.7;;5.7;5.5;;;;;;
79466;SPS30;68933;49.726;9.226;2023-06-14T10:46:14;5.7;;5.7;5.5;;;;;;
79466;SPS30;68933;49.726;9.226;2023-06-14T10:48:30;6;;6;5.7;;;;;;
79466;SPS30;68933;49.726;9.226;2023-06-14T10:50:41;6;;6;5.7;;;;;;
79466;SPS30;68933;49.726;9.226;2023-06-14T10:52:53;5.6;;5.6;5.4;;;;;;
79466;SPS30;68933;49.726;9.226;2023-06-14T10:55:06;5.6;;5.6;5.4;;;;;;
79466;SPS30;68933;49.726;9.226;2023-06-14T10:57:19;6.1;;6.1;5.8;;;;;;
79466;SPS30;68933;49.726;9.226;2023-06-14T10:59:32;6.1;;6.1;5.8;;;;;;
79466;SPS30;68933;49.726;9.226;2023-06-14T11:01:47;5.9;;5.9;5.6;;;;;;
79466;SPS30;68933;49.726;9.226;2023-06-14T11:04:00;5.9;;5.9;5.6;;;;;;
79466;SPS30;68933;49.726;9.226;2023-06-14T11:06:12;5.9;;5.9;5.6;;;;;;
79466;SPS30;68933;49.726;9.226;2023-06-14T11:08:26;5.9;;5.9;5.6;;;;;;
79466;SPS30;68933;49.726;9.226;2023-06-14T11:10:37;5.9;;5.9;5.6;;;;;;
79466;SPS30;68933;49.726;9.226;2023-06-14T11:12:50;5.8;;5.8;5.6;;;;;;
79466;SPS30;68933;49.726;9.226;2023-06-14T11:15:03;5.8;;5.8;5.6;;;;;;
79466;SPS30;68933;49.726;9.226;2023-06-14T11:17:16;5.8;;5.8;5.5;;;;;;
79466;SPS30;68933;49.726;9.226;2023-06-14T11:19:29;5.8;;5.8;5.5;;;;;;
79466;SPS30;68933;49.726;9.226;2023-06-14T11:21:42;5.8;;5.8;5.5;;;;;;
79466;SPS30;68933;49.726;9.226;2023-06-14T11:23:55;5.7;;5.7;5.4;;;;;;
79466;SPS30;68933;49.726;9.226;2023-06-14T11:26:08;5.7;;5.7;5.4;;;;;;
79466;SPS30;68933;49.726;9.226;2023-06-14T11:28:21;6;;6;5.7;;;;;;
79466;SPS30;68933;49.726;9.226;2023-06-14T11:30:34;6;;6;5.7;;;;;;
79466;SPS30;68933;49.726;9.226;2023-06-14T11:32:47;5.7;;5.7;5.4;;;;;;
79466;SPS30;68933;49.726;9.226;2023-06-14T11:35:00;5.7;;5.7;5.4;;;;;;
79466;SPS30;68933;49.726;9.226;2023-06-14T11:37:13;5.4;;5.4;5.1;;;;;;
79466;SPS30;68933;49.726;9.226;2023-06-14T11:39:26;5.4;;5.4;5.1;;;;;;
79466;SPS30;68933;49.726;9.226;2023-06-14T11:41:40;6.2;;6.2;5.9;;;;;;
79466;SPS30;68933;49.726;9.226;2023-06-14T11:43:52;6.2;;6.2;5.9;;;;;;
79466;SPS30;68933;49.726;9.226;2023-06-14T11:46:11;6;;6;5.8;;;;;;
79466;SPS30;68933;49.726;9.226;2023-06-14T11:48:18;6;;6;5.8;;;;;;
79466;SPS30;68933;49.726;9.226;2023-06-14T11:50:31;6;;6;5.8;;;;;;
79466;SPS30;68933;49.726;9.226;2023-06-14T11:52:44;5.4;;5.4;5.1;;;;;;
79466;SPS30;68933;49.726;9.226;2023-06-14T11:54:57;5.4;;5.4;5.1;;;;;;
79466;SPS30;68933;49.726;9.226;2023-06-14T11:57:10;5.1;;5.1;4.8;;;;;;
79466;SPS30;68933;49.726;9.226;2023-06-14T11:59:23;5.1;;5.1;4.8;;;;;;
79466;SPS30;68933;49.726;9.226;2023-06-14T12:01:36;5.2;;5.2;5;;;;;;
79466;SPS30;68933;49.726;9.226;2023-06-14T12:03:49;5.2;;5.2;5;;;;;;
79466;SPS30;68933;49.726;9.226;2023-06-14T12:06:02;5.9;;5.9;5.6;;;;;;
79466;SPS30;68933;49.726;9.226;2023-06-14T12:08:15;5.9;;5.9;5.6;;;;;;
79466;SPS30;68933;49.726;9.226;2023-06-14T12:10:28;5.9;;5.9;5.6;;;;;;
79466;SPS30;68933;49.726;9.226;2023-06-14T12:12:41;6.2;;6.2;5.9;;;;;;
79466;SPS30;68933;49.726;9.226;2023-06-14T12:14:54;6.2;;6.2;5.9;;;;;;
79466;SPS30;68933;49.726;9.226;2023-06-14T12:17:07;5.7;;5.7;5.4;;;;;;
79466;SPS30;68933;49.726;9.226;2023-06-14T12:19:20;5.7;;5.7;5.4;;;;;;
79466;SPS30;68933;49.726;9.226;2023-06-14T12:21:33;5.7;;5.7;5.4;;;;;;
79466;SPS30;68933;49.726;9.226;2023-06-14T12:23:46;5.7;;5.7;5.4;;;;;;
79466;SPS30;68933;49.726;9.226;2023-06-14T12:25:59;5.7;;5.7;5.4;;;;;;
79466;SPS30;68933;49.726;9.226;2023-06-14T12:28:12;6.3;;6.3;6;;;;;;